首页
METAR-TAF:

METAR-TAF

机场 :

杰克逊维尔, 佛罗里达州, 美国

纬度: 30-14-03N, 经度: 081-40-29W, 海拔: 6米

当前天气观测

该预报发布于17分钟前的12:53 UTC
风速7节,风向
温度 11°C
湿度 76%
气压 1026 hPa
能見度: 16.1公里
少量云层高于3500英尺
散云层高于25000英尺

METAR: KNIP 231253Z 01007KT 10SM FEW035 SCT250 11/07 A3030 RMK AO2 SLP254 T01060067

时间: 08:10 (13:10 UTC)

预报

预报有效从23日的 07点(UTC)到 24日的 07点(UTC)
风速7节,风向
能见度10公里或以上
天空无云
从 23日的 1500点(UTC)
风速5节,风向
能见度10公里或以上
少量云层高于3500英尺
散云层高于25000英尺
从 23日的 1900点(UTC)
风速5节,风向东转东北
能见度10公里或以上
少量云层高于3500英尺
散云层高于25000英尺
从 24日的 0100点(UTC)
风速5节,风向东转东北
能见度10公里或以上
散云层高于3500英尺
多云层高于25000英尺

TAF: KNIP 2307/2407 36007KT 9999 SKC QNH3021INS FM231500 36005KT 9999 FEW035 SCT250 QNH3010INS FM231900 07005KT 9999 FEW035 SCT250 QNH3007INS FM240100 07005KT 9999 SCT035 BKN250 QNH3003INS T09/2311Z T20/2320Z FN00085

超过4000个机场的气象观测和天气预报(METAR&TAF报告)。

可查询的气象台以黄色和红色小点在地图上表示。

将鼠标移到小点上方,可查看气象台名称。

然后点击查看天气观测和预报。

如需切换地图:点击带黑十字的绿色按钮放大地图;点击带横线的绿色按钮缩小地图;或者点击绿色箭头查看邻近地区的地图。


METAR-TAF: